sensor_id;sensor_type;location;lat;lon;timestamp;P1;durP1;ratioP1;P2;durP2;ratioP2
15055;SDS011;7626;42.674;23.284;2024-02-23T00:02:11;14.00;;;9.20;;
15055;SDS011;7626;42.674;23.284;2024-02-23T00:04:37;9.60;;;7.90;;
15055;SDS011;7626;42.674;23.284;2024-02-23T00:07:05;9.03;;;7.33;;
15055;SDS011;7626;42.674;23.284;2024-02-23T00:09:32;9.57;;;7.80;;
15055;SDS011;7626;42.674;23.284;2024-02-23T00:11:58;10.63;;;8.13;;
15055;SDS011;7626;42.674;23.284;2024-02-23T00:14:25;10.60;;;8.57;;
15055;SDS011;7626;42.674;23.284;2024-02-23T00:16:52;10.73;;;7.70;;
15055;SDS011;7626;42.674;23.284;2024-02-23T00:19:18;10.30;;;7.73;;
15055;SDS011;7626;42.674;23.284;2024-02-23T00:21:45;9.63;;;8.63;;
15055;SDS011;7626;42.674;23.284;2024-02-23T00:24:16;10.60;;;7.87;;
15055;SDS011;7626;42.674;23.284;2024-02-23T00:26:45;9.60;;;7.73;;
15055;SDS011;7626;42.674;23.284;2024-02-23T00:29:12;9.97;;;8.10;;
15055;SDS011;7626;42.674;23.284;2024-02-23T00:31:39;12.03;;;8.30;;
15055;SDS011;7626;42.674;23.284;2024-02-23T00:34:06;11.53;;;7.87;;
15055;SDS011;7626;42.674;23.284;2024-02-23T00:36:35;10.77;;;7.77;;
15055;SDS011;7626;42.674;23.284;2024-02-23T00:39:02;8.40;;;7.20;;
15055;SDS011;7626;42.674;23.284;2024-02-23T00:41:30;10.43;;;7.80;;
15055;SDS011;7626;42.674;23.284;2024-02-23T00:43:57;10.77;;;8.10;;
15055;SDS011;7626;42.674;23.284;2024-02-23T00:46:23;11.83;;;7.47;;
15055;SDS011;7626;42.674;23.284;2024-02-23T00:48:50;9.47;;;7.10;;
15055;SDS011;7626;42.674;23.284;2024-02-23T00:51:16;9.03;;;6.57;;
15055;SDS011;7626;42.674;23.284;2024-02-23T00:53:43;10.93;;;8.10;;
15055;SDS011;7626;42.674;23.284;2024-02-23T00:56:10;13.10;;;8.90;;
15055;SDS011;7626;42.674;23.284;2024-02-23T00:58:38;9.90;;;6.97;;
15055;SDS011;7626;42.674;23.284;2024-02-23T01:01:04;10.33;;;7.37;;
15055;SDS011;7626;42.674;23.284;2024-02-23T01:03:31;9.27;;;7.80;;
15055;SDS011;7626;42.674;23.284;2024-02-23T01:05:57;9.33;;;7.17;;
15055;SDS011;7626;42.674;23.284;2024-02-23T01:08:24;9.40;;;7.27;;
15055;SDS011;7626;42.674;23.284;2024-02-23T01:10:51;12.67;;;9.53;;
15055;SDS011;7626;42.674;23.284;2024-02-23T01:13:17;12.47;;;9.40;;
15055;SDS011;7626;42.674;23.284;2024-02-23T01:15:45;11.43;;;8.27;;
15055;SDS011;7626;42.674;23.284;2024-02-23T01:18:12;10.07;;;7.40;;
15055;SDS011;7626;42.674;23.284;2024-02-23T01:20:39;9.83;;;7.17;;
15055;SDS011;7626;42.674;23.284;2024-02-23T01:23:05;8.23;;;6.20;;
15055;SDS011;7626;42.674;23.284;2024-02-23T01:25:33;9.67;;;6.83;;
15055;SDS011;7626;42.674;23.284;2024-02-23T01:28:00;8.03;;;6.60;;
15055;SDS011;7626;42.674;23.284;2024-02-23T01:30:26;8.63;;;6.23;;
15055;SDS011;7626;42.674;23.284;2024-02-23T01:32:54;9.50;;;7.07;;
15055;SDS011;7626;42.674;23.284;2024-02-23T01:35:21;7.90;;;5.73;;
15055;SDS011;7626;42.674;23.284;2024-02-23T01:37:47;9.27;;;7.10;;
15055;SDS011;7626;42.674;23.284;2024-02-23T01:40:14;9.93;;;7.20;;
15055;SDS011;7626;42.674;23.284;2024-02-23T01:42:41;9.60;;;7.13;;
15055;SDS011;7626;42.674;23.284;2024-02-23T01:45:08;10.53;;;6.77;;
15055;SDS011;7626;42.674;23.284;2024-02-23T01:47:34;8.40;;;7.43;;
15055;SDS011;7626;42.674;23.284;2024-02-23T01:50:03;9.37;;;6.90;;
15055;SDS011;7626;42.674;23.284;2024-02-23T01:52:29;8.83;;;6.53;;
15055;SDS011;7626;42.674;23.284;2024-02-23T01:54:56;7.63;;;6.43;;
15055;SDS011;7626;42.674;23.284;2024-02-23T01:57:23;11.93;;;7.37;;
15055;SDS011;7626;42.674;23.284;2024-02-23T01:59:49;7.93;;;6.37;;
15055;SDS011;7626;42.674;23.284;2024-02-23T02:02:16;10.07;;;6.77;;
15055;SDS011;7626;42.674;23.284;2024-02-23T02:04:43;7.53;;;6.20;;
15055;SDS011;7626;42.674;23.284;2024-02-23T02:07:11;9.10;;;7.00;;
15055;SDS011;7626;42.674;23.284;2024-02-23T02:09:37;8.40;;;6.30;;
15055;SDS011;7626;42.674;23.284;2024-02-23T02:12:04;6.67;;;5.90;;
15055;SDS011;7626;42.674;23.284;2024-02-23T02:14:31;7.73;;;6.20;;
15055;SDS011;7626;42.674;23.284;2024-02-23T02:16:58;9.43;;;7.00;;
15055;SDS011;7626;42.674;23.284;2024-02-23T02:19:25;7.67;;;6.53;;
15055;SDS011;7626;42.674;23.284;2024-02-23T02:21:51;8.70;;;6.50;;
15055;SDS011;7626;42.674;23.284;2024-02-23T02:24:20;9.97;;;7.70;;
15055;SDS011;7626;42.674;23.284;2024-02-23T02:26:47;11.67;;;8.17;;
15055;SDS011;7626;42.674;23.284;2024-02-23T02:29:15;11.43;;;9.63;;
15055;SDS011;7626;42.674;23.284;2024-02-23T02:31:42;9.10;;;7.73;;
15055;SDS011;7626;42.674;23.284;2024-02-23T02:34:08;11.73;;;7.77;;
15055;SDS011;7626;42.674;23.284;2024-02-23T02:36:38;8.43;;;6.70;;
15055;SDS011;7626;42.674;23.284;2024-02-23T02:39:04;10.03;;;7.53;;
15055;SDS011;7626;42.674;23.284;2024-02-23T02:41:33;8.70;;;7.10;;
15055;SDS011;7626;42.674;23.284;2024-02-23T02:44:00;8.37;;;6.63;;
15055;SDS011;7626;42.674;23.284;2024-02-23T02:46:27;11.23;;;6.83;;
15055;SDS011;7626;42.674;23.284;2024-02-23T02:48:53;10.00;;;6.63;;
15055;SDS011;7626;42.674;23.284;2024-02-23T02:51:20;10.43;;;7.03;;
15055;SDS011;7626;42.674;23.284;2024-02-23T02:53:46;10.07;;;7.07;;
15055;SDS011;7626;42.674;23.284;2024-02-23T02:56:13;9.77;;;7.10;;
15055;SDS011;7626;42.674;23.284;2024-02-23T02:58:41;10.30;;;7.33;;
15055;SDS011;7626;42.674;23.284;2024-02-23T03:01:08;9.27;;;7.60;;
15055;SDS011;7626;42.674;23.284;2024-02-23T03:03:34;9.63;;;7.03;;
15055;SDS011;7626;42.674;23.284;2024-02-23T03:06:01;9.53;;;7.20;;
15055;SDS011;7626;42.674;23.284;2024-02-23T03:08:27;8.73;;;7.03;;
15055;SDS011;7626;42.674;23.284;2024-02-23T03:10:54;9.10;;;7.23;;
15055;SDS011;7626;42.674;23.284;2024-02-23T03:13:22;11.13;;;6.83;;
15055;SDS011;7626;42.674;23.284;2024-02-23T03:15:50;8.83;;;7.20;;
15055;SDS011;7626;42.674;23.284;2024-02-23T03:18:16;7.73;;;6.43;;
15055;SDS011;7626;42.674;23.284;2024-02-23T03:20:43;10.03;;;7.23;;
15055;SDS011;7626;42.674;23.284;2024-02-23T03:23:10;10.07;;;7.40;;
15055;SDS011;7626;42.674;23.284;2024-02-23T03:25:36;9.70;;;7.33;;
15055;SDS011;7626;42.674;23.284;2024-02-23T03:28:03;9.03;;;7.30;;
15055;SDS011;7626;42.674;23.284;2024-02-23T03:30:30;10.57;;;7.77;;
15055;SDS011;7626;42.674;23.284;2024-02-23T03:32:58;9.23;;;7.17;;
15055;SDS011;7626;42.674;23.284;2024-02-23T03:35:24;9.03;;;7.53;;
15055;SDS011;7626;42.674;23.284;2024-02-23T03:37:51;9.77;;;6.80;;
15055;SDS011;7626;42.674;23.284;2024-02-23T03:40:17;10.07;;;7.60;;
15055;SDS011;7626;42.674;23.284;2024-02-23T03:42:44;9.43;;;7.00;;
15055;SDS011;7626;42.674;23.284;2024-02-23T03:45:11;10.80;;;7.70;;
15055;SDS011;7626;42.674;23.284;2024-02-23T03:47:38;8.77;;;6.77;;
15055;SDS011;7626;42.674;23.284;2024-02-23T03:50:06;11.43;;;7.63;;
15055;SDS011;7626;42.674;23.284;2024-02-23T03:52:33;8.47;;;7.20;;
15055;SDS011;7626;42.674;23.284;2024-02-23T03:55:00;10.33;;;7.50;;
15055;SDS011;7626;42.674;23.284;2024-02-23T03:57:26;8.93;;;6.60;;
15055;SDS011;7626;42.674;23.284;2024-02-23T03:59:53;9.60;;;6.50;;
15055;SDS011;7626;42.674;23.284;2024-02-23T04:02:19;9.57;;;7.00;;
15055;SDS011;7626;42.674;23.284;2024-02-23T04:04:47;10.67;;;7.43;;
15055;SDS011;7626;42.674;23.284;2024-02-23T04:07:15;9.17;;;7.10;;
15055;SDS011;7626;42.674;23.284;2024-02-23T04:09:41;10.77;;;7.77;;
15055;SDS011;7626;42.674;23.284;2024-02-23T04:12:08;8.53;;;7.07;;
15055;SDS011;7626;42.674;23.284;2024-02-23T04:14:34;10.13;;;7.50;;
15055;SDS011;7626;42.674;23.284;2024-02-23T04:17:01;9.07;;;7.20;;
15055;SDS011;7626;42.674;23.284;2024-02-23T04:19:28;9.07;;;7.03;;
15055;SDS011;7626;42.674;23.284;2024-02-23T04:21:55;9.03;;;7.67;;
15055;SDS011;7626;42.674;23.284;2024-02-23T04:24:23;8.87;;;7.10;;
15055;SDS011;7626;42.674;23.284;2024-02-23T04:26:50;10.17;;;7.10;;
15055;SDS011;7626;42.674;23.284;2024-02-23T04:29:16;9.07;;;6.43;;
15055;SDS011;7626;42.674;23.284;2024-02-23T04:31:43;9.40;;;7.57;;
15055;SDS011;7626;42.674;23.284;2024-02-23T04:34:09;11.20;;;7.53;;
15055;SDS011;7626;42.674;23.284;2024-02-23T04:36:36;8.93;;;7.00;;
15055;SDS011;7626;42.674;23.284;2024-02-23T04:39:03;10.83;;;7.63;;
15055;SDS011;7626;42.674;23.284;2024-02-23T04:41:31;11.07;;;7.80;;
15055;SDS011;7626;42.674;23.284;2024-02-23T04:43:57;11.30;;;8.30;;
15055;SDS011;7626;42.674;23.284;2024-02-23T04:46:25;10.77;;;7.77;;
15055;SDS011;7626;42.674;23.284;2024-02-23T04:48:52;10.00;;;7.87;;
15055;SDS011;7626;42.674;23.284;2024-02-23T04:51:18;13.20;;;8.60;;
15055;SDS011;7626;42.674;23.284;2024-02-23T04:53:47;12.30;;;8.33;;
15055;SDS011;7626;42.674;23.284;2024-02-23T04:56:14;11.53;;;8.70;;
15055;SDS011;7626;42.674;23.284;2024-02-23T04:58:42;11.50;;;7.83;;
15055;SDS011;7626;42.674;23.284;2024-02-23T05:01:09;11.10;;;8.07;;
15055;SDS011;7626;42.674;23.284;2024-02-23T05:03:35;10.37;;;7.50;;
15055;SDS011;7626;42.674;23.284;2024-02-23T05:06:02;11.70;;;8.07;;
15055;SDS011;7626;42.674;23.284;2024-02-23T05:08:29;10.97;;;8.97;;
15055;SDS011;7626;42.674;23.284;2024-02-23T05:10:56;11.17;;;8.10;;
15055;SDS011;7626;42.674;23.284;2024-02-23T05:13:22;10.50;;;7.90;;
15055;SDS011;7626;42.674;23.284;2024-02-23T05:15:50;11.23;;;7.97;;
15055;SDS011;7626;42.674;23.284;2024-02-23T05:18:17;14.07;;;8.33;;
15055;SDS011;7626;42.674;23.284;2024-02-23T05:20:43;9.57;;;7.67;;
15055;SDS011;7626;42.674;23.284;2024-02-23T05:23:10;20.53;;;8.97;;
15055;SDS011;7626;42.674;23.284;2024-02-23T05:25:36;11.10;;;8.20;;
15055;SDS011;7626;42.674;23.284;2024-02-23T05:28:04;13.47;;;9.00;;
15055;SDS011;7626;42.674;23.284;2024-02-23T05:30:30;13.07;;;8.67;;
15055;SDS011;7626;42.674;23.284;2024-02-23T05:32:58;12.63;;;9.00;;
15055;SDS011;7626;42.674;23.284;2024-02-23T05:35:28;11.67;;;8.10;;
15055;SDS011;7626;42.674;23.284;2024-02-23T05:37:54;10.83;;;8.50;;
15055;SDS011;7626;42.674;23.284;2024-02-23T05:40:21;11.30;;;7.87;;
15055;SDS011;7626;42.674;23.284;2024-02-23T05:42:48;10.13;;;8.10;;
15055;SDS011;7626;42.674;23.284;2024-02-23T05:45:14;11.10;;;8.60;;
15055;SDS011;7626;42.674;23.284;2024-02-23T05:47:41;10.87;;;8.90;;
15055;SDS011;7626;42.674;23.284;2024-02-23T05:50:09;13.73;;;8.50;;
15055;SDS011;7626;42.674;23.284;2024-02-23T05:52:36;12.80;;;8.63;;
15055;SDS011;7626;42.674;23.284;2024-02-23T05:55:02;12.20;;;8.70;;
15055;SDS011;7626;42.674;23.284;2024-02-23T05:57:29;13.80;;;9.40;;
15055;SDS011;7626;42.674;23.284;2024-02-23T05:59:56;12.50;;;9.30;;
15055;SDS011;7626;42.674;23.284;2024-02-23T06:02:22;13.03;;;9.13;;
15055;SDS011;7626;42.674;23.284;2024-02-23T06:04:49;12.97;;;8.93;;
15055;SDS011;7626;42.674;23.284;2024-02-23T06:07:17;10.33;;;8.07;;
15055;SDS011;7626;42.674;23.284;2024-02-23T06:09:45;14.37;;;8.73;;
15055;SDS011;7626;42.674;23.284;2024-02-23T06:12:12;12.07;;;8.43;;
15055;SDS011;7626;42.674;23.284;2024-02-23T06:14:39;12.53;;;8.27;;
15055;SDS011;7626;42.674;23.284;2024-02-23T06:17:06;11.40;;;8.77;;
15055;SDS011;7626;42.674;23.284;2024-02-23T06:19:33;13.17;;;8.43;;
15055;SDS011;7626;42.674;23.284;2024-02-23T06:22:00;11.93;;;8.50;;
15055;SDS011;7626;42.674;23.284;2024-02-23T06:24:28;10.47;;;8.60;;
15055;SDS011;7626;42.674;23.284;2024-02-23T06:26:55;13.23;;;9.20;;
15055;SDS011;7626;42.674;23.284;2024-02-23T06:29:23;14.43;;;9.10;;
15055;SDS011;7626;42.674;23.284;2024-02-23T06:31:50;12.10;;;8.60;;
15055;SDS011;7626;42.674;23.284;2024-02-23T06:34:16;13.97;;;9.30;;
15055;SDS011;7626;42.674;23.284;2024-02-23T06:36:43;10.70;;;8.07;;
15055;SDS011;7626;42.674;23.284;2024-02-23T06:39:09;13.90;;;8.60;;
15055;SDS011;7626;42.674;23.284;2024-02-23T06:41:38;11.17;;;8.03;;
15055;SDS011;7626;42.674;23.284;2024-02-23T06:44:05;12.27;;;9.03;;
15055;SDS011;7626;42.674;23.284;2024-02-23T06:46:31;13.77;;;9.50;;
15055;SDS011;7626;42.674;23.284;2024-02-23T06:48:58;12.10;;;9.67;;
15055;SDS011;7626;42.674;23.284;2024-02-23T06:51:25;13.07;;;9.23;;
15055;SDS011;7626;42.674;23.284;2024-02-23T06:53:52;13.07;;;9.00;;
15055;SDS011;7626;42.674;23.284;2024-02-23T06:56:18;13.37;;;8.63;;
15055;SDS011;7626;42.674;23.284;2024-02-23T06:58:46;13.13;;;9.13;;
15055;SDS011;7626;42.674;23.284;2024-02-23T07:01:13;11.20;;;8.63;;
15055;SDS011;7626;42.674;23.284;2024-02-23T07:03:39;11.00;;;8.30;;
15055;SDS011;7626;42.674;23.284;2024-02-23T07:06:08;15.73;;;8.57;;
15055;SDS011;7626;42.674;23.284;2024-02-23T07:08:35;14.27;;;9.67;;
15055;SDS011;7626;42.674;23.284;2024-02-23T07:11:02;12.60;;;9.20;;
15055;SDS011;7626;42.674;23.284;2024-02-23T07:13:29;14.07;;;9.10;;
15055;SDS011;7626;42.674;23.284;2024-02-23T07:15:57;13.93;;;8.97;;
15055;SDS011;7626;42.674;23.284;2024-02-23T07:18:24;12.37;;;9.20;;
15055;SDS011;7626;42.674;23.284;2024-02-23T07:20:51;11.43;;;9.50;;
15055;SDS011;7626;42.674;23.284;2024-02-23T07:23:17;16.20;;;9.80;;
15055;SDS011;7626;42.674;23.284;2024-02-23T07:25:44;12.27;;;9.53;;
15055;SDS011;7626;42.674;23.284;2024-02-23T07:28:11;14.13;;;9.67;;
15055;SDS011;7626;42.674;23.284;2024-02-23T07:30:39;11.73;;;9.30;;
15055;SDS011;7626;42.674;23.284;2024-02-23T07:33:07;13.27;;;9.57;;
15055;SDS011;7626;42.674;23.284;2024-02-23T07:35:34;12.00;;;8.90;;
15055;SDS011;7626;42.674;23.284;2024-02-23T07:38:00;12.47;;;8.50;;
15055;SDS011;7626;42.674;23.284;2024-02-23T07:40:27;12.40;;;9.90;;
15055;SDS011;7626;42.674;23.284;2024-02-23T07:42:54;12.73;;;9.13;;
15055;SDS011;7626;42.674;23.284;2024-02-23T07:45:20;12.10;;;8.67;;
15055;SDS011;7626;42.674;23.284;2024-02-23T07:47:47;13.03;;;9.30;;
15055;SDS011;7626;42.674;23.284;2024-02-23T07:50:15;14.67;;;9.60;;
15055;SDS011;7626;42.674;23.284;2024-02-23T07:52:43;11.60;;;8.67;;
15055;SDS011;7626;42.674;23.284;2024-02-23T07:55:10;14.43;;;9.63;;
15055;SDS011;7626;42.674;23.284;2024-02-23T07:57:36;14.87;;;9.87;;
15055;SDS011;7626;42.674;23.284;2024-02-23T08:00:05;13.70;;;9.60;;
15055;SDS011;7626;42.674;23.284;2024-02-23T08:02:32;13.07;;;10.13;;
15055;SDS011;7626;42.674;23.284;2024-02-23T08:04:59;13.40;;;9.37;;
15055;SDS011;7626;42.674;23.284;2024-02-23T08:07:27;12.03;;;9.47;;
15055;SDS011;7626;42.674;23.284;2024-02-23T08:09:55;13.50;;;9.50;;
15055;SDS011;7626;42.674;23.284;2024-02-23T08:12:22;13.80;;;10.37;;
15055;SDS011;7626;42.674;23.284;2024-02-23T08:14:49;15.53;;;10.70;;
15055;SDS011;7626;42.674;23.284;2024-02-23T08:17:18;13.23;;;10.17;;
15055;SDS011;7626;42.674;23.284;2024-02-23T08:19:45;12.73;;;10.63;;
15055;SDS011;7626;42.674;23.284;2024-02-23T08:22:11;17.23;;;10.77;;
15055;SDS011;7626;42.674;23.284;2024-02-23T08:24:39;14.13;;;10.30;;
15055;SDS011;7626;42.674;23.284;2024-02-23T08:27:06;13.50;;;9.80;;
15055;SDS011;7626;42.674;23.284;2024-02-23T08:29:32;16.07;;;9.27;;
15055;SDS011;7626;42.674;23.284;2024-02-23T08:31:59;15.57;;;10.00;;
15055;SDS011;7626;42.674;23.284;2024-02-23T08:34:28;12.00;;;9.20;;
15055;SDS011;7626;42.674;23.284;2024-02-23T08:36:55;15.00;;;10.23;;
15055;SDS011;7626;42.674;23.284;2024-02-23T08:39:22;13.07;;;10.03;;
15055;SDS011;7626;42.674;23.284;2024-02-23T08:41:50;17.50;;;10.13;;
15055;SDS011;7626;42.674;23.284;2024-02-23T08:44:17;12.80;;;10.23;;
15055;SDS011;7626;42.674;23.284;2024-02-23T08:46:43;14.47;;;10.43;;
15055;SDS011;7626;42.674;23.284;2024-02-23T08:49:10;12.63;;;8.97;;
15055;SDS011;7626;42.674;23.284;2024-02-23T08:51:37;12.23;;;8.73;;
15055;SDS011;7626;42.674;23.284;2024-02-23T08:54:03;13.10;;;8.70;;
15055;SDS011;7626;42.674;23.284;2024-02-23T08:56:31;11.60;;;8.80;;
15055;SDS011;7626;42.674;23.284;2024-02-23T08:58:59;11.93;;;8.30;;
15055;SDS011;7626;42.674;23.284;2024-02-23T09:01:26;9.97;;;7.70;;
15055;SDS011;7626;42.674;23.284;2024-02-23T09:03:52;9.43;;;7.47;;
15055;SDS011;7626;42.674;23.284;2024-02-23T09:06:19;11.77;;;7.70;;
15055;SDS011;7626;42.674;23.284;2024-02-23T09:08:46;10.30;;;7.10;;
15055;SDS011;7626;42.674;23.284;2024-02-23T09:11:12;8.17;;;6.33;;
15055;SDS011;7626;42.674;23.284;2024-02-23T09:13:40;9.77;;;6.40;;
15055;SDS011;7626;42.674;23.284;2024-02-23T09:16:09;6.77;;;5.10;;
15055;SDS011;7626;42.674;23.284;2024-02-23T09:18:35;6.03;;;4.30;;
15055;SDS011;7626;42.674;23.284;2024-02-23T09:21:02;5.80;;;3.83;;
15055;SDS011;7626;42.674;23.284;2024-02-23T09:23:29;5.87;;;4.20;;
15055;SDS011;7626;42.674;23.284;2024-02-23T09:25:55;4.27;;;3.73;;
15055;SDS011;7626;42.674;23.284;2024-02-23T09:28:22;4.60;;;3.80;;
15055;SDS011;7626;42.674;23.284;2024-02-23T09:30:49;5.53;;;3.83;;
15055;SDS011;7626;42.674;23.284;2024-02-23T09:33:17;5.13;;;4.23;;
15055;SDS011;7626;42.674;23.284;2024-02-23T09:35:43;7.17;;;4.40;;
15055;SDS011;7626;42.674;23.284;2024-02-23T09:38:10;5.60;;;4.17;;
15055;SDS011;7626;42.674;23.284;2024-02-23T09:40:36;6.67;;;4.43;;
15055;SDS011;7626;42.674;23.284;2024-02-23T09:43:03;5.97;;;4.40;;
15055;SDS011;7626;42.674;23.284;2024-02-23T09:45:33;5.43;;;4.33;;
15055;SDS011;7626;42.674;23.284;2024-02-23T09:48:00;7.37;;;4.73;;
15055;SDS011;7626;42.674;23.284;2024-02-23T09:50:29;6.27;;;4.20;;
15055;SDS011;7626;42.674;23.284;2024-02-23T09:52:56;5.80;;;4.03;;
15055;SDS011;7626;42.674;23.284;2024-02-23T09:55:25;6.67;;;4.40;;
15055;SDS011;7626;42.674;23.284;2024-02-23T09:57:52;7.30;;;4.13;;
15055;SDS011;7626;42.674;23.284;2024-02-23T10:00:21;7.97;;;4.87;;
15055;SDS011;7626;42.674;23.284;2024-02-23T10:02:49;5.37;;;4.07;;
15055;SDS011;7626;42.674;23.284;2024-02-23T10:05:16;5.07;;;3.87;;
15055;SDS011;7626;42.674;23.284;2024-02-23T10:07:44;5.37;;;3.87;;
15055;SDS011;7626;42.674;23.284;2024-02-23T10:10:11;5.33;;;4.40;;
15055;SDS011;7626;42.674;23.284;2024-02-23T10:12:39;8.80;;;4.00;;
15055;SDS011;7626;42.674;23.284;2024-02-23T10:15:06;4.23;;;3.20;;
15055;SDS011;7626;42.674;23.284;2024-02-23T10:17:32;3.93;;;2.93;;
15055;SDS011;7626;42.674;23.284;2024-02-23T10:19:59;5.03;;;2.77;;
15055;SDS011;7626;42.674;23.284;2024-02-23T10:22:30;6.17;;;3.30;;
15055;SDS011;7626;42.674;23.284;2024-02-23T10:24:58;3.53;;;2.90;;
15055;SDS011;7626;42.674;23.284;2024-02-23T10:27:25;5.83;;;3.20;;
15055;SDS011;7626;42.674;23.284;2024-02-23T10:29:52;3.60;;;2.90;;
15055;SDS011;7626;42.674;23.284;2024-02-23T10:32:19;2.63;;;2.30;;
15055;SDS011;7626;42.674;23.284;2024-02-23T10:34:47;3.33;;;2.60;;
15055;SDS011;7626;42.674;23.284;2024-02-23T10:37:14;4.63;;;3.90;;
15055;SDS011;7626;42.674;23.284;2024-02-23T10:39:40;3.07;;;2.77;;
15055;SDS011;7626;42.674;23.284;2024-02-23T10:42:09;2.77;;;2.20;;
15055;SDS011;7626;42.674;23.284;2024-02-23T10:44:37;4.67;;;2.50;;
15055;SDS011;7626;42.674;23.284;2024-02-23T10:47:04;5.93;;;4.23;;
15055;SDS011;7626;42.674;23.284;2024-02-23T10:49:31;5.00;;;3.00;;
15055;SDS011;7626;42.674;23.284;2024-02-23T10:51:58;2.33;;;2.10;;
15055;SDS011;7626;42.674;23.284;2024-02-23T10:54:25;3.27;;;2.60;;
15055;SDS011;7626;42.674;23.284;2024-02-23T10:56:52;2.37;;;2.17;;
15055;SDS011;7626;42.674;23.284;2024-02-23T10:59:22;2.13;;;1.93;;
15055;SDS011;7626;42.674;23.284;2024-02-23T11:01:49;2.90;;;2.13;;
15055;SDS011;7626;42.674;23.284;2024-02-23T11:04:16;3.27;;;2.27;;
15055;SDS011;7626;42.674;23.284;2024-02-23T11:06:46;2.70;;;2.30;;
15055;SDS011;7626;42.674;23.284;2024-02-23T11:09:15;4.67;;;2.43;;
15055;SDS011;7626;42.674;23.284;2024-02-23T11:11:50;3.33;;;2.50;;
15055;SDS011;7626;42.674;23.284;2024-02-23T11:14:17;3.97;;;2.80;;
15055;SDS011;7626;42.674;23.284;2024-02-23T11:16:45;3.00;;;2.20;;
15055;SDS011;7626;42.674;23.284;2024-02-23T11:19:18;2.80;;;2.00;;
15055;SDS011;7626;42.674;23.284;2024-02-23T11:21:52;5.00;;;2.40;;
15055;SDS011;7626;42.674;23.284;2024-02-23T11:24:19;2.53;;;2.20;;
15055;SDS011;7626;42.674;23.284;2024-02-23T11:26:45;3.50;;;2.20;;
15055;SDS011;7626;42.674;23.284;2024-02-23T11:29:14;2.03;;;1.83;;
15055;SDS011;7626;42.674;23.284;2024-02-23T11:31:45;5.87;;;2.47;;
15055;SDS011;7626;42.674;23.284;2024-02-23T11:34:12;6.80;;;2.10;;
15055;SDS011;7626;42.674;23.284;2024-02-23T11:36:38;3.40;;;2.60;;
15055;SDS011;7626;42.674;23.284;2024-02-23T11:39:05;3.10;;;1.97;;
15055;SDS011;7626;42.674;23.284;2024-02-23T11:41:32;2.50;;;2.10;;
15055;SDS011;7626;42.674;23.284;2024-02-23T11:43:58;2.83;;;2.40;;
15055;SDS011;7626;42.674;23.284;2024-02-23T11:46:25;2.77;;;2.47;;
15055;SDS011;7626;42.674;23.284;2024-02-23T11:48:53;2.70;;;2.00;;
15055;SDS011;7626;42.674;23.284;2024-02-23T11:51:19;2.33;;;2.00;;
15055;SDS011;7626;42.674;23.284;2024-02-23T11:53:46;3.10;;;2.20;;
15055;SDS011;7626;42.674;23.284;2024-02-23T11:56:13;2.77;;;2.10;;
15055;SDS011;7626;42.674;23.284;2024-02-23T11:58:40;4.50;;;2.90;;
15055;SDS011;7626;42.674;23.284;2024-02-23T12:01:07;2.37;;;2.17;;
15055;SDS011;7626;42.674;23.284;2024-02-23T12:03:33;4.60;;;2.13;;
15055;SDS011;7626;42.674;23.284;2024-02-23T12:06:02;4.43;;;2.20;;
15055;SDS011;7626;42.674;23.284;2024-02-23T12:08:29;2.40;;;2.03;;
15055;SDS011;7626;42.674;23.284;2024-02-23T12:10:57;5.27;;;2.20;;
15055;SDS011;7626;42.674;23.284;2024-02-23T12:13:25;3.07;;;1.97;;
15055;SDS011;7626;42.674;23.284;2024-02-23T12:18:37;3.63;;;2.10;;
15055;SDS011;7626;42.674;23.284;2024-02-23T12:21:05;2.73;;;2.37;;
15055;SDS011;7626;42.674;23.284;2024-02-23T12:23:42;4.17;;;2.23;;
15055;SDS011;7626;42.674;23.284;2024-02-23T12:26:09;3.43;;;2.10;;
15055;SDS011;7626;42.674;23.284;2024-02-23T12:28:36;2.67;;;2.40;;
15055;SDS011;7626;42.674;23.284;2024-02-23T12:31:03;4.17;;;2.90;;
15055;SDS011;7626;42.674;23.284;2024-02-23T12:33:31;4.23;;;2.40;;
15055;SDS011;7626;42.674;23.284;2024-02-23T12:35:58;5.27;;;2.80;;
15055;SDS011;7626;42.674;23.284;2024-02-23T12:38:26;3.37;;;2.57;;
15055;SDS011;7626;42.674;23.284;2024-02-23T12:40:52;2.53;;;2.10;;
15055;SDS011;7626;42.674;23.284;2024-02-23T12:43:19;5.03;;;2.00;;
15055;SDS011;7626;42.674;23.284;2024-02-23T12:45:46;2.97;;;2.47;;
15055;SDS011;7626;42.674;23.284;2024-02-23T12:48:14;4.67;;;2.20;;
15055;SDS011;7626;42.674;23.284;2024-02-23T12:50:41;2.33;;;1.90;;
15055;SDS011;7626;42.674;23.284;2024-02-23T12:53:08;3.10;;;1.93;;
15055;SDS011;7626;42.674;23.284;2024-02-23T12:55:36;4.47;;;2.03;;
15055;SDS011;7626;42.674;23.284;2024-02-23T12:58:02;4.70;;;2.53;;
15055;SDS011;7626;42.674;23.284;2024-02-23T13:00:29;2.13;;;1.93;;
15055;SDS011;7626;42.674;23.284;2024-02-23T13:02:56;4.33;;;1.80;;
15055;SDS011;7626;42.674;23.284;2024-02-23T13:05:22;3.00;;;2.30;;
15055;SDS011;7626;42.674;23.284;2024-02-23T13:07:49;3.70;;;1.80;;
15055;SDS011;7626;42.674;23.284;2024-02-23T13:10:15;3.00;;;1.80;;
15055;SDS011;7626;42.674;23.284;2024-02-23T13:12:45;1.80;;;1.70;;
15055;SDS011;7626;42.674;23.284;2024-02-23T13:15:11;2.50;;;2.30;;
15055;SDS011;7626;42.674;23.284;2024-02-23T13:17:38;2.73;;;2.20;;
15055;SDS011;7626;42.674;23.284;2024-02-23T13:20:05;4.67;;;2.77;;
15055;SDS011;7626;42.674;23.284;2024-02-23T13:22:32;5.00;;;2.17;;
15055;SDS011;7626;42.674;23.284;2024-02-23T13:24:58;2.67;;;2.10;;
15055;SDS011;7626;42.674;23.284;2024-02-23T13:27:25;2.70;;;1.90;;
15055;SDS011;7626;42.674;23.284;2024-02-23T13:29:53;2.33;;;1.83;;
15055;SDS011;7626;42.674;23.284;2024-02-23T13:32:20;2.57;;;1.80;;
15055;SDS011;7626;42.674;23.284;2024-02-23T13:34:46;10.73;;;2.57;;
15055;SDS011;7626;42.674;23.284;2024-02-23T13:37:17;2.97;;;2.27;;
15055;SDS011;7626;42.674;23.284;2024-02-23T13:39:43;3.87;;;2.53;;
15055;SDS011;7626;42.674;23.284;2024-02-23T13:42:10;3.50;;;2.47;;
15055;SDS011;7626;42.674;23.284;2024-02-23T13:44:37;2.70;;;2.40;;
15055;SDS011;7626;42.674;23.284;2024-02-23T13:47:05;2.53;;;2.33;;
15055;SDS011;7626;42.674;23.284;2024-02-23T13:49:32;1.93;;;1.70;;
15055;SDS011;7626;42.674;23.284;2024-02-23T13:51:58;2.20;;;2.00;;
15055;SDS011;7626;42.674;23.284;2024-02-23T13:54:25;2.67;;;2.10;;
15055;SDS011;7626;42.674;23.284;2024-02-23T13:56:52;2.73;;;1.93;;
15055;SDS011;7626;42.674;23.284;2024-02-23T13:59:19;2.10;;;1.90;;
15055;SDS011;7626;42.674;23.284;2024-02-23T14:01:45;2.60;;;1.93;;
15055;SDS011;7626;42.674;23.284;2024-02-23T14:04:13;2.10;;;1.90;;
15055;SDS011;7626;42.674;23.284;2024-02-23T14:06:40;2.17;;;1.97;;
15055;SDS011;7626;42.674;23.284;2024-02-23T14:09:06;3.20;;;1.87;;
15055;SDS011;7626;42.674;23.284;2024-02-23T14:11:33;3.07;;;2.13;;
15055;SDS011;7626;42.674;23.284;2024-02-23T14:13:59;4.63;;;2.30;;
15055;SDS011;7626;42.674;23.284;2024-02-23T14:16:28;3.93;;;2.30;;
15055;SDS011;7626;42.674;23.284;2024-02-23T14:18:54;2.20;;;2.00;;
15055;SDS011;7626;42.674;23.284;2024-02-23T14:21:22;5.40;;;2.00;;
15055;SDS011;7626;42.674;23.284;2024-02-23T14:23:50;3.10;;;2.13;;
15055;SDS011;7626;42.674;23.284;2024-02-23T14:26:17;2.63;;;2.07;;
15055;SDS011;7626;42.674;23.284;2024-02-23T14:28:43;2.50;;;2.30;;
15055;SDS011;7626;42.674;23.284;2024-02-23T14:31:10;3.23;;;2.00;;
15055;SDS011;7626;42.674;23.284;2024-02-23T14:33:37;2.70;;;2.03;;
15055;SDS011;7626;42.674;23.284;2024-02-23T14:36:03;3.77;;;2.40;;
15055;SDS011;7626;42.674;23.284;2024-02-23T14:38:31;3.43;;;2.27;;
15055;SDS011;7626;42.674;23.284;2024-02-23T14:40:58;2.90;;;2.10;;
15055;SDS011;7626;42.674;23.284;2024-02-23T14:43:25;4.87;;;2.17;;